createdAt,value
2022-10-19T00:01:16.304Z,99172.56
2022-10-19T00:03:45.892Z,99193.25
2022-10-19T00:06:18.179Z,99184.69
2022-10-19T00:08:46.266Z,99179.47
2022-10-19T00:11:13.722Z,99170.00
2022-10-19T00:13:41.210Z,99169.13
2022-10-19T00:16:15.005Z,99156.28
2022-10-19T00:18:43.658Z,99159.72
2022-10-19T00:21:13.711Z,99146.88
2022-10-19T00:23:41.315Z,99140.88
2022-10-19T00:26:08.817Z,99133.03
2022-10-19T00:28:36.871Z,99134.88
2022-10-19T00:31:10.418Z,99143.44
2022-10-19T00:33:38.585Z,99140.72
2022-10-19T00:36:06.855Z,99125.28
2022-10-19T00:38:34.293Z,99126.25
2022-10-19T00:41:02.607Z,99131.41
2022-10-19T00:43:31.764Z,99119.38
2022-10-19T00:45:59.355Z,99100.44
2022-10-19T00:48:31.991Z,99115.94
2022-10-19T00:51:00.588Z,99097.00
2022-10-19T00:53:30.555Z,99104.78
2022-10-19T00:56:00.536Z,99108.97
2022-10-19T00:58:28.066Z,99111.56
2022-10-19T01:00:55.666Z,99117.63
2022-10-19T01:03:23.297Z,99118.53
2022-10-19T01:05:51.434Z,99121.16
2022-10-19T01:08:19.223Z,99123.69
2022-10-19T01:10:58.674Z,99123.75
2022-10-19T01:13:33.556Z,99122.88
2022-10-19T01:16:26.859Z,99115.41
2022-10-19T01:19:31.158Z,99110.25
2022-10-19T01:22:32.515Z,99102.50
2022-10-19T01:25:28.676Z,99107.53
2022-10-19T01:28:14.588Z,99114.50
2022-10-19T01:30:51.210Z,99124.66
2022-10-19T01:33:40.558Z,99117.88
2022-10-19T01:36:37.343Z,99122.16
2022-10-19T01:39:10.638Z,99103.00
2022-10-19T01:41:49.228Z,99104.84
2022-10-19T01:44:28.131Z,99079.84
2022-10-19T01:47:00.751Z,99070.25
2022-10-19T01:49:45.548Z,99078.28
2022-10-19T01:52:17.568Z,99078.19
2022-10-19T01:54:52.990Z,99060.13
2022-10-19T01:57:26.603Z,99062.81
2022-10-19T01:59:55.763Z,99055.06
2022-10-19T02:02:26.252Z,99041.31
2022-10-19T02:04:57.099Z,99038.75
2022-10-19T02:07:25.709Z,99046.59
2022-10-19T02:09:53.226Z,99037.06
2022-10-19T02:12:21.911Z,99041.38
2022-10-19T02:14:52.359Z,99031.00
2022-10-19T02:17:24.144Z,99031.94
2022-10-19T02:19:53.919Z,99042.38
2022-10-19T02:22:22.222Z,99029.41
2022-10-19T02:24:49.959Z,99026.84
2022-10-19T02:27:17.696Z,99022.63
2022-10-19T02:29:45.343Z,99017.50
2022-10-19T02:32:13.040Z,99026.13
2022-10-19T02:34:41.449Z,99020.00
2022-10-19T02:37:09.039Z,99004.47
2022-10-19T02:39:38.255Z,99008.84
2022-10-19T02:42:29.228Z,99007.44
2022-10-19T02:45:06.966Z,99003.81
2022-10-19T02:48:00.057Z,98991.00
2022-10-19T02:50:27.897Z,99004.59
2022-10-19T02:52:55.332Z,98999.44
2022-10-19T02:55:22.827Z,98991.72
2022-10-19T02:57:50.217Z,98987.34
2022-10-19T03:00:17.885Z,98982.19
2022-10-19T03:02:45.419Z,98976.06
2022-10-19T03:05:12.791Z,98982.19
2022-10-19T03:07:41.498Z,98986.50
2022-10-19T03:10:09.421Z,98989.13
2022-10-19T03:12:36.929Z,98990.84
2022-10-19T03:15:05.101Z,98978.81
2022-10-19T03:17:32.875Z,98974.41
2022-10-19T03:20:00.598Z,98970.97
2022-10-19T03:22:30.454Z,98972.78
2022-10-19T03:24:57.898Z,98981.44
2022-10-19T03:27:25.497Z,98977.22
2022-10-19T03:29:53.051Z,98977.16
2022-10-19T03:32:21.634Z,98979.78
2022-10-19T03:34:49.118Z,98966.84
2022-10-19T03:37:16.507Z,98963.38
2022-10-19T03:39:43.891Z,98963.38
2022-10-19T03:42:11.426Z,98960.00
2022-10-19T03:44:38.800Z,98957.53
2022-10-19T03:47:06.264Z,98952.34
2022-10-19T03:49:34.678Z,98958.41
2022-10-19T03:52:04.493Z,98942.16
2022-10-19T03:54:31.915Z,98924.06
2022-10-19T03:56:59.413Z,98941.28
2022-10-19T03:59:27.159Z,98920.56
2022-10-19T04:01:54.715Z,98921.41
2022-10-19T04:04:22.123Z,98924.06
2022-10-19T04:06:50.616Z,98923.19
2022-10-19T04:09:20.063Z,98924.06
2022-10-19T04:11:48.453Z,98908.56
2022-10-19T04:14:26.881Z,98913.69
2022-10-19T04:17:04.481Z,98913.88
2022-10-19T04:19:32.095Z,98907.78
2022-10-19T04:21:59.960Z,98901.66
2022-10-19T04:24:28.025Z,98900.03
2022-10-19T04:26:56.802Z,98893.88
2022-10-19T04:29:29.496Z,98891.13
2022-10-19T04:31:59.740Z,98892.84
2022-10-19T04:34:27.447Z,98902.25
2022-10-19T04:36:55.297Z,98898.78
2022-10-19T04:39:22.865Z,98904.00
2022-10-19T04:41:50.259Z,98899.66
2022-10-19T04:44:17.790Z,98907.44
2022-10-19T04:46:45.265Z,98891.88
2022-10-19T04:49:16.383Z,98890.25
2022-10-19T04:51:47.001Z,98882.38
2022-10-19T04:54:14.405Z,98890.94
2022-10-19T04:56:41.909Z,98886.47
2022-10-19T04:59:10.458Z,98870.09
2022-10-19T05:01:40.427Z,98889.03
2022-10-19T05:04:10.125Z,98876.84
2022-10-19T05:06:38.090Z,98894.88
2022-10-19T05:09:05.527Z,98891.38
2022-10-19T05:11:33.075Z,98877.50
2022-10-19T05:14:00.471Z,98879.97
2022-10-19T05:16:27.999Z,98886.06
2022-10-19T05:18:56.873Z,98889.50
2022-10-19T05:21:27.237Z,98878.34
2022-10-19T05:23:56.188Z,98876.75
2022-10-19T05:26:26.016Z,98888.91
2022-10-19T05:28:56.825Z,98877.75
2022-10-19T05:31:27.683Z,98882.22
2022-10-19T05:33:56.473Z,98872.75
2022-10-19T05:36:26.357Z,98881.31
2022-10-19T05:38:57.137Z,98875.91
2022-10-19T05:41:25.867Z,98871.56
2022-10-19T05:43:56.007Z,98874.94
2022-10-19T05:46:24.933Z,98868.81
2022-10-19T05:48:52.674Z,98878.25
2022-10-19T05:51:22.737Z,98870.53
2022-10-19T05:53:50.260Z,98870.53
2022-10-19T05:56:20.340Z,98858.44
2022-10-19T05:58:48.099Z,98867.06
2022-10-19T06:01:18.971Z,98867.81
2022-10-19T06:03:50.753Z,98864.38
2022-10-19T06:06:18.797Z,98873.81
2022-10-19T06:08:46.938Z,98872.91
2022-10-19T06:11:34.005Z,98875.63
2022-10-19T06:14:04.479Z,98869.50
2022-10-19T06:16:32.585Z,98867.72
2022-10-19T06:19:00.412Z,98872.91
2022-10-19T06:21:30.078Z,98863.41
2022-10-19T06:24:00.402Z,98860.13
2022-10-19T06:26:29.050Z,98864.50
2022-10-19T06:29:00.215Z,98852.41
2022-10-19T06:31:30.275Z,98848.19
2022-10-19T06:33:57.916Z,98849.97
2022-10-19T06:36:29.300Z,98849.97
2022-10-19T06:38:56.938Z,98852.53
2022-10-19T06:41:24.379Z,98835.28
2022-10-19T06:43:53.051Z,98842.09
2022-10-19T06:46:23.560Z,98849.84
2022-10-19T06:48:55.001Z,98858.34
2022-10-19T06:51:23.314Z,98852.94
2022-10-19T06:53:52.921Z,98852.09
2022-10-19T06:56:25.058Z,98853.75
2022-10-19T06:58:52.971Z,98852.03
2022-10-19T07:01:20.578Z,98851.09
2022-10-19T07:03:48.061Z,98848.56
2022-10-19T07:06:15.527Z,98848.47
2022-10-19T07:08:44.003Z,98850.00
2022-10-19T07:11:15.319Z,98850.97
2022-10-19T07:13:42.875Z,98846.66
2022-10-19T07:16:16.169Z,98844.16
2022-10-19T07:18:47.755Z,98833.00
2022-10-19T07:21:17.321Z,98848.56
2022-10-19T07:23:47.191Z,98842.63
2022-10-19T07:26:23.588Z,98841.03
2022-10-19T07:28:51.337Z,98838.34
2022-10-19T07:31:22.665Z,98834.88
2022-10-19T07:33:58.936Z,98834.91
2022-10-19T07:36:28.020Z,98837.19
2022-10-19T07:38:55.635Z,98831.13
2022-10-19T07:41:25.574Z,98841.22
2022-10-19T07:43:53.942Z,98830.19
2022-10-19T07:46:23.691Z,98833.56
2022-10-19T07:48:51.499Z,98833.56
2022-10-19T07:51:20.215Z,98834.41
2022-10-19T07:53:48.691Z,98833.69
2022-10-19T07:56:21.897Z,98838.94
2022-10-19T07:58:54.757Z,98839.00
2022-10-19T08:01:24.859Z,98828.59
2022-10-19T08:06:41.658Z,98837.47
2022-10-19T08:09:09.199Z,98834.81
2022-10-19T08:11:36.866Z,98831.38
2022-10-19T08:14:04.458Z,98840.88
2022-10-19T08:16:44.579Z,98832.41
2022-10-19T08:19:16.215Z,98841.94
2022-10-19T08:22:26.683Z,98849.78
2022-10-19T08:25:31.633Z,98838.75
2022-10-19T08:29:04.188Z,98822.97
2022-10-19T08:32:49.722Z,98834.31
2022-10-19T08:36:44.214Z,98823.09
2022-10-19T08:50:59.625Z,98824.19
2022-10-19T08:53:42.460Z,98808.88
2022-10-19T08:56:26.783Z,98807.09
2022-10-19T08:59:11.845Z,98814.75
2022-10-19T09:10:38.804Z,98829.41
2022-10-19T09:14:04.640Z,98828.41
2022-10-19T09:17:14.484Z,98826.34
2022-10-19T09:19:42.454Z,98828.69
2022-10-19T09:22:43.744Z,98835.81
2022-10-19T09:25:19.591Z,98843.31
2022-10-19T09:27:53.190Z,98825.97
2022-10-19T09:30:23.118Z,98835.25
2022-10-19T09:33:02.722Z,98830.13
2022-10-19T09:35:39.179Z,98831.97
2022-10-19T09:38:07.858Z,98834.38
2022-10-19T09:54:16.049Z,98839.75
2022-10-19T09:56:53.803Z,98843.16
2022-10-19T09:59:23.645Z,98840.69
2022-10-19T10:06:32.252Z,98833.81
2022-10-19T10:13:37.496Z,98839.16
2022-10-19T10:16:08.311Z,98842.38
2022-10-19T10:18:39.400Z,98840.53
2022-10-19T10:24:34.238Z,98850.81
2022-10-19T10:27:06.596Z,98845.66
2022-10-19T10:29:39.208Z,98854.22
2022-10-19T10:32:09.028Z,98856.72
2022-10-19T10:34:51.814Z,98853.34
2022-10-19T10:38:06.260Z,98846.78
2022-10-19T10:40:49.072Z,98847.44
2022-10-19T10:43:33.763Z,98853.59
2022-10-19T10:46:24.707Z,98858.16
2022-10-19T10:49:00.266Z,98846.72
2022-10-19T10:51:43.008Z,98849.34
2022-10-19T10:54:17.191Z,98842.41
2022-10-19T10:57:06.267Z,98841.72
2022-10-19T10:59:45.900Z,98846.41
2022-10-19T11:02:28.527Z,98835.16
2022-10-19T11:05:10.806Z,98837.31
2022-10-19T11:07:45.087Z,98830.69
2022-10-19T11:10:30.151Z,98824.31
2022-10-19T11:13:18.914Z,98822.13
2022-10-19T11:16:18.907Z,98814.59
2022-10-19T11:18:55.493Z,98814.22
2022-10-19T11:21:35.349Z,98813.00
2022-10-19T11:24:41.172Z,98814.34
2022-10-19T11:27:21.907Z,98819.63
2022-10-19T11:29:51.995Z,98811.72
2022-10-19T11:32:19.423Z,98814.91
2022-10-19T11:35:07.209Z,98803.56
2022-10-19T11:37:49.707Z,98815.72
2022-10-19T11:40:54.277Z,98818.50
2022-10-19T11:43:39.626Z,98802.22
2022-10-19T11:46:36.967Z,98797.47
2022-10-19T11:49:31.694Z,98807.00
2022-10-19T11:52:36.898Z,98803.75
2022-10-19T11:55:41.247Z,98816.59
2022-10-19T11:58:39.758Z,98815.63
2022-10-19T12:01:06.970Z,98819.19
2022-10-19T12:04:20.271Z,98824.72
2022-10-19T12:07:29.307Z,98825.19
2022-10-19T12:10:05.348Z,98825.91
2022-10-19T12:13:33.981Z,98821.47
2022-10-19T12:16:03.930Z,98827.28
2022-10-19T12:18:51.887Z,98823.78
2022-10-19T12:21:22.493Z,98837.22
2022-10-19T12:23:51.452Z,98837.94
2022-10-19T12:26:30.162Z,98834.34
2022-10-19T12:29:07.431Z,98836.81
2022-10-19T12:31:36.181Z,98832.44
2022-10-19T12:34:35.612Z,98825.78
2022-10-19T12:37:12.827Z,98832.47
2022-10-19T12:39:58.847Z,98833.69
2022-10-19T12:42:53.711Z,98828.19
2022-10-19T12:45:26.894Z,98820.38
2022-10-19T12:48:12.492Z,98829.97
2022-10-19T12:50:48.930Z,98828.19
2022-10-19T12:53:40.110Z,98836.06
2022-10-19T12:56:24.334Z,98830.84
2022-10-19T12:58:54.550Z,98831.47
2022-10-19T13:01:28.265Z,98829.00
2022-10-19T13:04:19.522Z,98828.19
2022-10-19T13:07:44.938Z,98832.59
2022-10-19T13:10:21.041Z,98842.75
2022-10-19T13:12:49.075Z,98847.00
2022-10-19T13:15:42.505Z,98842.97
2022-10-19T13:18:34.221Z,98848.72
2022-10-19T13:21:03.529Z,98842.59
2022-10-19T13:23:31.213Z,98844.41
2022-10-19T13:26:24.145Z,98850.53
2022-10-19T13:28:55.917Z,98855.34
2022-10-19T13:31:27.054Z,98848.44
2022-10-19T13:33:55.055Z,98853.66
2022-10-19T13:36:24.519Z,98857.06
2022-10-19T13:39:02.794Z,98861.44
2022-10-19T13:41:39.191Z,98863.94
2022-10-19T13:44:21.653Z,98857.75
2022-10-19T13:47:02.774Z,98858.63
2022-10-19T13:49:58.236Z,98870.78
2022-10-19T13:52:43.485Z,98862.00
2022-10-19T13:55:23.473Z,98868.91
2022-10-19T13:58:14.239Z,98867.28
2022-10-19T14:01:01.122Z,98868.28
2022-10-19T14:04:05.845Z,98865.69
2022-10-19T14:06:56.635Z,98864.66
2022-10-19T14:09:45.646Z,98857.06
2022-10-19T14:12:22.467Z,98860.34
2022-10-19T14:23:52.555Z,98874.94
2022-10-19T14:34:16.404Z,98856.66
2022-10-19T14:37:49.486Z,98873.25
2022-10-19T14:41:48.789Z,98881.00
2022-10-19T14:48:50.017Z,98896.19
2022-10-19T14:51:45.336Z,98890.19
2022-10-19T14:54:30.291Z,98892.84
2022-10-19T14:57:06.695Z,98896.94
2022-10-19T14:59:55.614Z,98896.94
2022-10-19T15:02:29.081Z,98897.00
2022-10-19T15:04:59.773Z,98901.31
2022-10-19T15:07:48.092Z,98898.91
2022-10-19T15:10:20.742Z,98886.47
2022-10-19T15:12:51.012Z,98902.91
2022-10-19T15:15:27.906Z,98895.91
2022-10-19T15:18:03.291Z,98908.88
2022-10-19T15:20:43.902Z,98920.78
2022-10-19T15:23:40.127Z,98923.41
2022-10-19T15:26:29.506Z,98920.03
2022-10-19T15:29:09.630Z,98917.22
2022-10-19T15:31:37.163Z,98924.72
2022-10-19T15:34:05.477Z,98929.06
2022-10-19T15:36:33.529Z,98939.13
2022-10-19T15:39:24.712Z,98933.09
2022-10-19T15:41:52.838Z,98932.00
2022-10-19T15:44:42.514Z,98937.22
2022-10-19T15:47:23.054Z,98941.38
2022-10-19T15:50:02.061Z,98943.81
2022-10-19T15:52:34.712Z,98947.84
2022-10-19T15:55:02.594Z,98944.19
2022-10-19T15:57:36.447Z,98953.66
2022-10-19T16:00:16.243Z,98946.88
2022-10-19T16:02:46.083Z,98946.63
2022-10-19T16:05:13.588Z,98953.69
2022-10-19T16:07:42.036Z,98964.88
2022-10-19T16:10:17.089Z,98968.28
2022-10-19T16:12:44.925Z,98962.22
2022-10-19T16:15:16.465Z,98952.97
2022-10-19T16:17:47.201Z,98959.78
2022-10-19T16:20:15.494Z,98957.22
2022-10-19T16:22:46.944Z,98958.81
2022-10-19T16:25:14.838Z,98956.88
2022-10-19T16:27:42.439Z,98962.97
2022-10-19T16:30:14.002Z,98969.00
2022-10-19T16:35:42.215Z,98969.00
2022-10-19T16:38:37.648Z,98982.03
2022-10-19T16:41:56.427Z,98984.53
2022-10-19T16:45:04.444Z,98990.59
2022-10-19T16:48:11.714Z,98985.31
2022-10-19T16:51:28.744Z,98993.16
2022-10-19T16:54:24.085Z,98986.88
2022-10-19T16:57:09.760Z,98982.28
2022-10-19T16:59:37.906Z,98991.00
2022-10-19T17:02:05.400Z,98988.41
2022-10-19T17:04:42.038Z,98996.31
2022-10-19T17:07:24.522Z,98995.44
2022-10-19T17:22:08.091Z,98997.00
2022-10-19T17:25:25.073Z,98999.97
2022-10-19T17:33:01.029Z,99013.63
2022-10-19T17:35:52.236Z,99001.28
2022-10-19T17:38:38.657Z,99017.47
2022-10-19T17:41:33.681Z,99018.03
2022-10-19T17:44:10.468Z,99014.69
2022-10-19T17:46:38.395Z,99027.66
2022-10-19T17:52:15.565Z,99025.91
2022-10-19T17:54:54.400Z,99026.69
2022-10-19T17:57:30.564Z,99033.72
2022-10-19T17:59:58.058Z,99030.03
2022-10-19T18:02:25.557Z,99034.50
2022-10-19T18:04:53.170Z,99030.22
2022-10-19T18:07:22.123Z,99039.72
2022-10-19T18:09:49.581Z,99037.13
2022-10-19T18:12:16.979Z,99028.56
2022-10-19T18:14:45.315Z,99043.25
2022-10-19T18:17:12.845Z,99044.94
2022-10-19T18:19:40.305Z,99048.22
2022-10-19T18:22:07.783Z,99038.81
2022-10-19T18:24:35.266Z,99043.22
2022-10-19T18:27:02.842Z,99049.25
2022-10-19T18:29:30.466Z,99048.38
2022-10-19T18:31:58.213Z,99048.44
2022-10-19T18:34:27.069Z,99045.81
2022-10-19T18:36:55.074Z,99056.75
2022-10-19T18:39:22.918Z,99055.97
2022-10-19T18:41:56.921Z,99056.59
2022-10-19T18:44:27.917Z,99059.13
2022-10-19T18:46:57.214Z,99059.97
2022-10-19T18:49:24.975Z,99069.31
2022-10-19T18:51:55.367Z,99072.13
2022-10-19T18:54:26.449Z,99066.72
2022-10-19T18:56:55.071Z,99061.47
2022-10-19T18:59:22.922Z,99057.06
2022-10-19T19:01:50.597Z,99060.38
2022-10-19T19:04:18.193Z,99066.38
2022-10-19T19:06:45.625Z,99063.88
2022-10-19T19:09:13.426Z,99049.88
2022-10-19T19:11:41.339Z,99068.06
2022-10-19T19:14:17.871Z,99063.81
2022-10-19T19:16:45.631Z,99056.91
2022-10-19T19:19:14.981Z,99068.22
2022-10-19T19:21:44.520Z,99057.81
2022-10-19T19:24:15.317Z,99053.72
2022-10-19T19:26:46.823Z,99060.25
2022-10-19T19:29:14.490Z,99062.66
2022-10-19T19:31:42.073Z,99065.13
2022-10-19T19:37:08.936Z,99070.81
2022-10-19T19:39:39.802Z,99070.72
2022-10-19T19:42:07.957Z,99066.31
2022-10-19T19:44:35.367Z,99077.56
2022-10-19T19:47:03.133Z,99066.56
2022-10-19T19:49:42.220Z,99071.88
2022-10-19T19:53:12.255Z,99078.81
2022-10-19T19:56:59.986Z,99079.66
2022-10-19T20:04:29.859Z,99100.13
2022-10-19T20:07:40.503Z,99107.59
2022-10-19T20:25:47.787Z,99122.78
2022-10-19T20:28:39.923Z,99133.91
2022-10-19T20:31:26.027Z,99131.34
2022-10-19T20:33:59.093Z,99129.47
2022-10-19T20:36:29.618Z,99136.63
2022-10-19T20:38:58.802Z,99142.63
2022-10-19T20:42:24.566Z,99142.06
2022-10-19T20:44:54.734Z,99146.06
2022-10-19T20:48:12.208Z,99147.19
2022-10-19T20:51:44.401Z,99144.72
2022-10-19T20:55:57.679Z,99139.59
2022-10-19T21:03:09.087Z,99138.47
2022-10-19T21:06:04.948Z,99147.63
2022-10-19T21:08:34.417Z,99143.91
2022-10-19T21:11:11.166Z,99149.44
2022-10-19T21:13:38.699Z,99140.75
2022-10-19T21:16:17.483Z,99151.13
2022-10-19T21:18:46.951Z,99143.13
2022-10-19T21:21:20.886Z,99143.41
2022-10-19T21:23:50.742Z,99146.06
2022-10-19T21:26:40.298Z,99155.78
2022-10-19T21:29:09.752Z,99144.34
2022-10-19T21:43:42.342Z,99153.03
2022-10-19T21:46:15.063Z,99146.72
2022-10-19T21:49:04.107Z,99159.78
2022-10-19T21:52:16.129Z,99158.25
2022-10-19T21:55:26.648Z,99171.13
2022-10-19T21:58:36.148Z,99168.56
2022-10-19T22:02:14.303Z,99166.88
2022-10-19T22:05:01.722Z,99168.28
2022-10-19T22:07:42.509Z,99168.22
2022-10-19T22:10:25.107Z,99180.25
2022-10-19T22:17:28.818Z,99187.19
2022-10-19T22:19:59.128Z,99184.69
2022-10-19T22:22:26.615Z,99187.94
2022-10-19T22:25:12.293Z,99195.00
2022-10-19T22:27:58.138Z,99194.09
2022-10-19T22:30:28.250Z,99199.28
2022-10-19T22:32:56.091Z,99197.22
2022-10-19T22:35:38.690Z,99203.31
2022-10-19T22:38:06.117Z,99201.47
2022-10-19T22:40:33.613Z,99192.75
2022-10-19T22:50:21.948Z,99209.53
2022-10-19T22:52:49.423Z,99204.31
2022-10-19T22:55:16.894Z,99211.84
2022-10-19T22:57:45.329Z,99211.72
2022-10-19T23:00:13.219Z,99206.38
2022-10-19T23:02:40.726Z,99219.22
2022-10-19T23:05:08.539Z,99219.66
2022-10-19T23:07:38.282Z,99216.19
2022-10-19T23:10:08.813Z,99215.19
2022-10-19T23:12:36.336Z,99228.19
2022-10-19T23:15:04.074Z,99222.97
2022-10-19T23:17:31.559Z,99228.88
2022-10-19T23:20:45.478Z,99228.44
2022-10-19T23:23:56.190Z,99222.28
2022-10-19T23:27:01.274Z,99238.56
2022-10-19T23:30:02.253Z,99237.44
2022-10-19T23:33:32.170Z,99245.41
2022-10-19T23:36:13.085Z,99241.72
2022-10-19T23:38:41.871Z,99245.00
2022-10-19T23:42:20.739Z,99254.75
2022-10-19T23:45:25.458Z,99252.69
2022-10-19T23:48:10.444Z,99256.09
2022-10-19T23:50:37.921Z,99262.16
